sensor_id;sensor_type;location;lat;lon;timestamp;P1;durP1;ratioP1;P2;durP2;ratioP2
35372;SDS011;21476;51.652;7.852;2022-12-10T00:00:36;87.45;;;44.72;;
35372;SDS011;21476;51.652;7.852;2022-12-10T00:03:01;87.72;;;44.47;;
35372;SDS011;21476;51.652;7.852;2022-12-10T00:05:27;85.00;;;44.17;;
35372;SDS011;21476;51.652;7.852;2022-12-10T00:07:53;85.28;;;44.58;;
35372;SDS011;21476;51.652;7.852;2022-12-10T00:10:18;71.05;;;39.53;;
35372;SDS011;21476;51.652;7.852;2022-12-10T00:12:44;83.07;;;43.50;;
35372;SDS011;21476;51.652;7.852;2022-12-10T00:15:09;82.47;;;45.60;;
35372;SDS011;21476;51.652;7.852;2022-12-10T00:17:35;81.05;;;43.15;;
35372;SDS011;21476;51.652;7.852;2022-12-10T00:20:01;80.50;;;43.05;;
35372;SDS011;21476;51.652;7.852;2022-12-10T00:22:27;81.15;;;44.08;;
35372;SDS011;21476;51.652;7.852;2022-12-10T00:24:52;90.53;;;44.90;;
35372;SDS011;21476;51.652;7.852;2022-12-10T00:27:32;80.50;;;42.17;;
35372;SDS011;21476;51.652;7.852;2022-12-10T00:29:58;78.32;;;43.00;;
35372;SDS011;21476;51.652;7.852;2022-12-10T00:32:23;75.63;;;42.35;;
35372;SDS011;21476;51.652;7.852;2022-12-10T00:34:49;86.68;;;45.75;;
35372;SDS011;21476;51.652;7.852;2022-12-10T00:37:15;84.00;;;45.45;;
35372;SDS011;21476;51.652;7.852;2022-12-10T00:39:40;80.03;;;43.17;;
35372;SDS011;21476;51.652;7.852;2022-12-10T00:42:06;78.85;;;43.05;;
35372;SDS011;21476;51.652;7.852;2022-12-10T00:44:31;88.20;;;43.88;;
35372;SDS011;21476;51.652;7.852;2022-12-10T00:46:57;83.18;;;44.40;;
35372;SDS011;21476;51.652;7.852;2022-12-10T00:49:22;87.07;;;43.72;;
35372;SDS011;21476;51.652;7.852;2022-12-10T00:51:49;86.90;;;45.55;;
35372;SDS011;21476;51.652;7.852;2022-12-10T00:54:15;89.18;;;44.55;;
35372;SDS011;21476;51.652;7.852;2022-12-10T00:56:40;90.93;;;47.08;;
35372;SDS011;21476;51.652;7.852;2022-12-10T00:59:06;86.68;;;45.53;;
35372;SDS011;21476;51.652;7.852;2022-12-10T01:01:37;92.25;;;46.85;;
35372;SDS011;21476;51.652;7.852;2022-12-10T01:04:05;82.95;;;44.03;;
35372;SDS011;21476;51.652;7.852;2022-12-10T01:06:34;81.07;;;43.97;;
35372;SDS011;21476;51.652;7.852;2022-12-10T01:09:06;83.35;;;45.22;;
35372;SDS011;21476;51.652;7.852;2022-12-10T01:11:34;84.60;;;45.90;;
35372;SDS011;21476;51.652;7.852;2022-12-10T01:14:02;88.82;;;42.85;;
35372;SDS011;21476;51.652;7.852;2022-12-10T01:16:28;84.03;;;43.42;;
35372;SDS011;21476;51.652;7.852;2022-12-10T01:18:54;86.63;;;45.42;;
35372;SDS011;21476;51.652;7.852;2022-12-10T01:21:21;83.90;;;42.33;;
35372;SDS011;21476;51.652;7.852;2022-12-10T01:23:48;80.38;;;43.55;;
35372;SDS011;21476;51.652;7.852;2022-12-10T01:26:17;90.70;;;42.40;;
35372;SDS011;21476;51.652;7.852;2022-12-10T01:28:44;72.00;;;40.70;;
35372;SDS011;21476;51.652;7.852;2022-12-10T01:31:14;84.28;;;43.05;;
35372;SDS011;21476;51.652;7.852;2022-12-10T01:33:42;79.72;;;41.58;;
35372;SDS011;21476;51.652;7.852;2022-12-10T01:36:10;76.25;;;41.85;;
35372;SDS011;21476;51.652;7.852;2022-12-10T01:38:37;78.53;;;41.28;;
35372;SDS011;21476;51.652;7.852;2022-12-10T01:41:03;78.35;;;41.28;;
35372;SDS011;21476;51.652;7.852;2022-12-10T01:43:47;79.15;;;42.25;;
35372;SDS011;21476;51.652;7.852;2022-12-10T01:46:24;74.28;;;38.13;;
35372;SDS011;21476;51.652;7.852;2022-12-10T01:48:55;79.72;;;44.22;;
35372;SDS011;21476;51.652;7.852;2022-12-10T01:51:21;73.88;;;40.60;;
35372;SDS011;21476;51.652;7.852;2022-12-10T01:53:48;79.93;;;41.70;;
35372;SDS011;21476;51.652;7.852;2022-12-10T01:56:15;80.38;;;41.97;;
35372;SDS011;21476;51.652;7.852;2022-12-10T01:58:43;75.35;;;42.13;;
35372;SDS011;21476;51.652;7.852;2022-12-10T02:01:14;72.95;;;41.10;;
35372;SDS011;21476;51.652;7.852;2022-12-10T02:09:38;79.25;;;42.22;;
35372;SDS011;21476;51.652;7.852;2022-12-10T02:12:28;81.38;;;42.78;;
35372;SDS011;21476;51.652;7.852;2022-12-10T02:15:17;78.45;;;41.03;;
35372;SDS011;21476;51.652;7.852;2022-12-10T02:18:30;81.18;;;43.20;;
35372;SDS011;21476;51.652;7.852;2022-12-10T02:20:43;87.05;;;42.38;;
35372;SDS011;21476;51.652;7.852;2022-12-10T02:23:14;80.72;;;43.38;;
35372;SDS011;21476;51.652;7.852;2022-12-10T02:30:45;83.03;;;42.78;;
35372;SDS011;21476;51.652;7.852;2022-12-10T02:33:14;79.43;;;42.33;;
35372;SDS011;21476;51.652;7.852;2022-12-10T02:35:42;74.05;;;41.72;;
35372;SDS011;21476;51.652;7.852;2022-12-10T02:38:13;81.38;;;42.50;;
35372;SDS011;21476;51.652;7.852;2022-12-10T02:40:45;84.22;;;45.10;;
35372;SDS011;21476;51.652;7.852;2022-12-10T02:43:14;81.68;;;45.03;;
35372;SDS011;21476;51.652;7.852;2022-12-10T02:45:41;83.13;;;43.72;;
35372;SDS011;21476;51.652;7.852;2022-12-10T02:48:08;79.35;;;41.70;;
35372;SDS011;21476;51.652;7.852;2022-12-10T02:50:35;76.13;;;40.88;;
35372;SDS011;21476;51.652;7.852;2022-12-10T02:53:01;85.65;;;42.92;;
35372;SDS011;21476;51.652;7.852;2022-12-10T02:55:37;83.00;;;42.05;;
35372;SDS011;21476;51.652;7.852;2022-12-10T02:58:36;83.25;;;43.10;;
35372;SDS011;21476;51.652;7.852;2022-12-10T03:03:49;81.50;;;43.35;;
35372;SDS011;21476;51.652;7.852;2022-12-10T03:11:26;81.97;;;42.75;;
35372;SDS011;21476;51.652;7.852;2022-12-10T03:13:59;77.13;;;42.33;;
35372;SDS011;21476;51.652;7.852;2022-12-10T03:16:36;76.30;;;40.88;;
35372;SDS011;21476;51.652;7.852;2022-12-10T03:19:16;86.18;;;44.00;;
35372;SDS011;21476;51.652;7.852;2022-12-10T03:21:44;86.53;;;43.95;;
35372;SDS011;21476;51.652;7.852;2022-12-10T03:24:12;86.55;;;44.22;;
35372;SDS011;21476;51.652;7.852;2022-12-10T03:26:40;82.35;;;43.17;;
35372;SDS011;21476;51.652;7.852;2022-12-10T03:29:09;73.15;;;40.40;;
35372;SDS011;21476;51.652;7.852;2022-12-10T03:31:39;82.85;;;44.58;;
35372;SDS011;21476;51.652;7.852;2022-12-10T03:34:06;83.00;;;44.58;;
35372;SDS011;21476;51.652;7.852;2022-12-10T03:36:34;87.63;;;43.67;;
35372;SDS011;21476;51.652;7.852;2022-12-10T03:39:01;87.50;;;44.92;;
35372;SDS011;21476;51.652;7.852;2022-12-10T03:41:27;92.10;;;46.03;;
35372;SDS011;21476;51.652;7.852;2022-12-10T03:43:54;90.60;;;44.83;;
35372;SDS011;21476;51.652;7.852;2022-12-10T03:46:21;86.93;;;44.10;;
35372;SDS011;21476;51.652;7.852;2022-12-10T03:48:48;85.03;;;45.17;;
35372;SDS011;21476;51.652;7.852;2022-12-10T03:51:14;83.80;;;44.05;;
35372;SDS011;21476;51.652;7.852;2022-12-10T03:53:40;82.32;;;43.88;;
35372;SDS011;21476;51.652;7.852;2022-12-10T03:56:06;82.03;;;41.58;;
35372;SDS011;21476;51.652;7.852;2022-12-10T03:58:32;79.13;;;40.88;;
35372;SDS011;21476;51.652;7.852;2022-12-10T04:00:57;81.15;;;42.38;;
35372;SDS011;21476;51.652;7.852;2022-12-10T04:03:23;76.07;;;40.75;;
35372;SDS011;21476;51.652;7.852;2022-12-10T04:05:49;84.40;;;42.55;;
35372;SDS011;21476;51.652;7.852;2022-12-10T04:08:14;80.82;;;44.63;;
35372;SDS011;21476;51.652;7.852;2022-12-10T04:10:40;76.47;;;42.15;;
35372;SDS011;21476;51.652;7.852;2022-12-10T04:13:06;79.03;;;41.15;;
35372;SDS011;21476;51.652;7.852;2022-12-10T04:15:50;84.00;;;41.63;;
35372;SDS011;21476;51.652;7.852;2022-12-10T04:18:34;84.93;;;43.80;;
35372;SDS011;21476;51.652;7.852;2022-12-10T04:21:00;85.78;;;42.78;;
35372;SDS011;21476;51.652;7.852;2022-12-10T04:23:44;80.78;;;41.92;;
35372;SDS011;21476;51.652;7.852;2022-12-10T04:26:28;83.35;;;43.22;;
35372;SDS011;21476;51.652;7.852;2022-12-10T04:29:12;83.57;;;41.65;;
35372;SDS011;21476;51.652;7.852;2022-12-10T04:31:38;86.88;;;43.33;;
35372;SDS011;21476;51.652;7.852;2022-12-10T04:34:03;81.93;;;42.92;;
35372;SDS011;21476;51.652;7.852;2022-12-10T04:36:29;82.90;;;43.35;;
35372;SDS011;21476;51.652;7.852;2022-12-10T04:38:54;82.70;;;42.83;;
35372;SDS011;21476;51.652;7.852;2022-12-10T04:41:20;76.65;;;40.25;;
35372;SDS011;21476;51.652;7.852;2022-12-10T04:43:46;78.75;;;44.35;;
35372;SDS011;21476;51.652;7.852;2022-12-10T04:46:11;77.95;;;41.58;;
35372;SDS011;21476;51.652;7.852;2022-12-10T04:48:37;83.03;;;41.63;;
35372;SDS011;21476;51.652;7.852;2022-12-10T04:51:02;83.60;;;41.70;;
35372;SDS011;21476;51.652;7.852;2022-12-10T04:53:29;82.97;;;42.78;;
35372;SDS011;21476;51.652;7.852;2022-12-10T04:55:54;77.18;;;40.50;;
35372;SDS011;21476;51.652;7.852;2022-12-10T04:58:20;80.30;;;41.67;;
35372;SDS011;21476;51.652;7.852;2022-12-10T05:00:45;74.50;;;40.35;;
35372;SDS011;21476;51.652;7.852;2022-12-10T05:03:11;73.68;;;38.42;;
35372;SDS011;21476;51.652;7.852;2022-12-10T05:05:36;69.35;;;39.60;;
35372;SDS011;21476;51.652;7.852;2022-12-10T05:08:02;73.65;;;41.53;;
35372;SDS011;21476;51.652;7.852;2022-12-10T05:10:29;78.43;;;40.05;;
35372;SDS011;21476;51.652;7.852;2022-12-10T05:12:54;78.15;;;40.30;;
35372;SDS011;21476;51.652;7.852;2022-12-10T05:15:20;73.72;;;39.33;;
35372;SDS011;21476;51.652;7.852;2022-12-10T05:17:46;77.45;;;41.35;;
35372;SDS011;21476;51.652;7.852;2022-12-10T05:20:12;76.90;;;42.25;;
35372;SDS011;21476;51.652;7.852;2022-12-10T05:22:37;80.93;;;41.53;;
35372;SDS011;21476;51.652;7.852;2022-12-10T05:25:22;82.55;;;41.00;;
35372;SDS011;21476;51.652;7.852;2022-12-10T05:27:47;79.25;;;41.10;;
35372;SDS011;21476;51.652;7.852;2022-12-10T05:30:13;80.95;;;40.90;;
35372;SDS011;21476;51.652;7.852;2022-12-10T05:32:38;75.75;;;40.65;;
35372;SDS011;21476;51.652;7.852;2022-12-10T05:35:04;75.85;;;41.55;;
35372;SDS011;21476;51.652;7.852;2022-12-10T05:37:30;87.60;;;42.17;;
35372;SDS011;21476;51.652;7.852;2022-12-10T05:39:56;83.35;;;42.33;;
35372;SDS011;21476;51.652;7.852;2022-12-10T05:42:22;78.85;;;41.20;;
35372;SDS011;21476;51.652;7.852;2022-12-10T05:44:47;70.97;;;40.60;;
35372;SDS011;21476;51.652;7.852;2022-12-10T05:47:13;76.80;;;40.90;;
35372;SDS011;21476;51.652;7.852;2022-12-10T05:49:39;81.32;;;40.50;;
35372;SDS011;21476;51.652;7.852;2022-12-10T05:52:04;73.45;;;39.00;;
35372;SDS011;21476;51.652;7.852;2022-12-10T05:54:30;76.95;;;41.58;;
35372;SDS011;21476;51.652;7.852;2022-12-10T05:56:56;71.47;;;40.05;;
35372;SDS011;21476;51.652;7.852;2022-12-10T05:59:21;80.18;;;41.88;;
35372;SDS011;21476;51.652;7.852;2022-12-10T06:01:47;77.85;;;40.40;;
35372;SDS011;21476;51.652;7.852;2022-12-10T06:04:13;74.88;;;39.95;;
35372;SDS011;21476;51.652;7.852;2022-12-10T06:06:38;74.93;;;41.08;;
35372;SDS011;21476;51.652;7.852;2022-12-10T06:09:05;75.38;;;40.53;;
35372;SDS011;21476;51.652;7.852;2022-12-10T06:11:35;76.60;;;41.63;;
35372;SDS011;21476;51.652;7.852;2022-12-10T06:14:01;74.20;;;40.72;;
35372;SDS011;21476;51.652;7.852;2022-12-10T06:16:27;75.45;;;41.67;;
35372;SDS011;21476;51.652;7.852;2022-12-10T06:18:53;85.82;;;43.10;;
35372;SDS011;21476;51.652;7.852;2022-12-10T06:21:19;79.93;;;40.67;;
35372;SDS011;21476;51.652;7.852;2022-12-10T06:23:46;79.55;;;40.63;;
35372;SDS011;21476;51.652;7.852;2022-12-10T06:26:14;73.25;;;40.08;;
35372;SDS011;21476;51.652;7.852;2022-12-10T06:28:43;75.60;;;39.17;;
35372;SDS011;21476;51.652;7.852;2022-12-10T06:31:10;74.78;;;39.25;;
35372;SDS011;21476;51.652;7.852;2022-12-10T06:33:36;79.88;;;40.70;;
35372;SDS011;21476;51.652;7.852;2022-12-10T06:36:03;80.15;;;40.58;;
35372;SDS011;21476;51.652;7.852;2022-12-10T06:38:30;75.13;;;40.60;;
35372;SDS011;21476;51.652;7.852;2022-12-10T06:40:55;74.05;;;37.97;;
35372;SDS011;21476;51.652;7.852;2022-12-10T06:43:21;74.25;;;39.17;;
35372;SDS011;21476;51.652;7.852;2022-12-10T06:45:47;76.15;;;39.70;;
35372;SDS011;21476;51.652;7.852;2022-12-10T06:48:12;67.70;;;35.58;;
35372;SDS011;21476;51.652;7.852;2022-12-10T06:50:38;63.42;;;36.40;;
35372;SDS011;21476;51.652;7.852;2022-12-10T06:53:03;77.65;;;39.67;;
35372;SDS011;21476;51.652;7.852;2022-12-10T06:55:29;73.38;;;38.92;;
35372;SDS011;21476;51.652;7.852;2022-12-10T06:57:55;67.90;;;37.50;;
35372;SDS011;21476;51.652;7.852;2022-12-10T07:00:20;61.28;;;35.78;;
35372;SDS011;21476;51.652;7.852;2022-12-10T07:02:47;65.90;;;35.47;;
35372;SDS011;21476;51.652;7.852;2022-12-10T07:05:13;64.35;;;35.58;;
35372;SDS011;21476;51.652;7.852;2022-12-10T07:07:39;64.78;;;35.60;;
35372;SDS011;21476;51.652;7.852;2022-12-10T07:10:05;66.25;;;35.05;;
35372;SDS011;21476;51.652;7.852;2022-12-10T07:12:31;48.05;;;25.45;;
35372;SDS011;21476;51.652;7.852;2022-12-10T07:14:57;50.80;;;28.30;;
35372;SDS011;21476;51.652;7.852;2022-12-10T07:17:23;43.45;;;24.80;;
35372;SDS011;21476;51.652;7.852;2022-12-10T07:19:49;42.83;;;25.67;;
35372;SDS011;21476;51.652;7.852;2022-12-10T07:22:15;38.17;;;23.60;;
35372;SDS011;21476;51.652;7.852;2022-12-10T07:24:40;43.97;;;25.70;;
35372;SDS011;21476;51.652;7.852;2022-12-10T07:27:06;40.33;;;23.75;;
35372;SDS011;21476;51.652;7.852;2022-12-10T07:29:33;39.05;;;23.45;;
35372;SDS011;21476;51.652;7.852;2022-12-10T07:31:59;39.45;;;23.83;;
35372;SDS011;21476;51.652;7.852;2022-12-10T07:34:24;40.83;;;24.75;;
35372;SDS011;21476;51.652;7.852;2022-12-10T07:36:50;41.85;;;25.70;;
35372;SDS011;21476;51.652;7.852;2022-12-10T07:39:16;38.90;;;23.77;;
35372;SDS011;21476;51.652;7.852;2022-12-10T07:41:46;38.40;;;23.13;;
35372;SDS011;21476;51.652;7.852;2022-12-10T07:44:16;36.72;;;22.65;;
35372;SDS011;21476;51.652;7.852;2022-12-10T07:46:43;30.25;;;19.52;;
35372;SDS011;21476;51.652;7.852;2022-12-10T07:49:09;31.02;;;19.83;;
35372;SDS011;21476;51.652;7.852;2022-12-10T07:51:34;32.95;;;21.17;;
35372;SDS011;21476;51.652;7.852;2022-12-10T07:54:00;31.95;;;21.75;;
35372;SDS011;21476;51.652;7.852;2022-12-10T07:56:26;35.33;;;20.73;;
35372;SDS011;21476;51.652;7.852;2022-12-10T07:58:52;31.08;;;19.73;;
35372;SDS011;21476;51.652;7.852;2022-12-10T08:01:19;31.40;;;19.40;;
35372;SDS011;21476;51.652;7.852;2022-12-10T08:03:47;27.40;;;17.60;;
35372;SDS011;21476;51.652;7.852;2022-12-10T08:06:14;26.55;;;17.77;;
35372;SDS011;21476;51.652;7.852;2022-12-10T08:08:42;28.20;;;18.10;;
35372;SDS011;21476;51.652;7.852;2022-12-10T08:11:09;27.35;;;18.45;;
35372;SDS011;21476;51.652;7.852;2022-12-10T08:13:35;32.55;;;19.48;;
35372;SDS011;21476;51.652;7.852;2022-12-10T08:16:02;27.42;;;18.67;;
35372;SDS011;21476;51.652;7.852;2022-12-10T08:18:29;29.33;;;18.15;;
35372;SDS011;21476;51.652;7.852;2022-12-10T08:20:55;23.83;;;15.43;;
35372;SDS011;21476;51.652;7.852;2022-12-10T08:23:21;26.48;;;16.15;;
35372;SDS011;21476;51.652;7.852;2022-12-10T08:25:47;24.40;;;16.80;;
35372;SDS011;21476;51.652;7.852;2022-12-10T08:28:12;23.83;;;16.17;;
35372;SDS011;21476;51.652;7.852;2022-12-10T08:30:38;25.42;;;16.05;;
35372;SDS011;21476;51.652;7.852;2022-12-10T08:33:04;25.85;;;15.32;;
35372;SDS011;21476;51.652;7.852;2022-12-10T08:35:29;24.05;;;15.77;;
35372;SDS011;21476;51.652;7.852;2022-12-10T08:37:55;22.33;;;15.18;;
35372;SDS011;21476;51.652;7.852;2022-12-10T08:40:21;24.30;;;14.88;;
35372;SDS011;21476;51.652;7.852;2022-12-10T08:42:46;23.17;;;15.80;;
35372;SDS011;21476;51.652;7.852;2022-12-10T08:45:12;25.63;;;16.15;;
35372;SDS011;21476;51.652;7.852;2022-12-10T08:47:37;23.58;;;16.50;;
35372;SDS011;21476;51.652;7.852;2022-12-10T08:50:03;23.10;;;14.90;;
35372;SDS011;21476;51.652;7.852;2022-12-10T08:52:29;24.67;;;16.38;;
35372;SDS011;21476;51.652;7.852;2022-12-10T08:54:55;27.20;;;15.00;;
35372;SDS011;21476;51.652;7.852;2022-12-10T08:57:21;22.17;;;15.55;;
35372;SDS011;21476;51.652;7.852;2022-12-10T08:59:46;21.45;;;14.55;;
35372;SDS011;21476;51.652;7.852;2022-12-10T09:02:12;20.48;;;12.38;;
35372;SDS011;21476;51.652;7.852;2022-12-10T09:04:38;23.40;;;14.82;;
35372;SDS011;21476;51.652;7.852;2022-12-10T09:07:04;25.10;;;14.77;;
35372;SDS011;21476;51.652;7.852;2022-12-10T09:09:30;24.85;;;15.88;;
35372;SDS011;21476;51.652;7.852;2022-12-10T09:11:57;23.30;;;15.23;;
35372;SDS011;21476;51.652;7.852;2022-12-10T09:14:22;24.10;;;15.52;;
35372;SDS011;21476;51.652;7.852;2022-12-10T09:16:48;21.30;;;14.70;;
35372;SDS011;21476;51.652;7.852;2022-12-10T09:19:14;24.65;;;14.60;;
35372;SDS011;21476;51.652;7.852;2022-12-10T09:21:40;22.45;;;14.60;;
35372;SDS011;21476;51.652;7.852;2022-12-10T09:24:06;23.52;;;16.02;;
35372;SDS011;21476;51.652;7.852;2022-12-10T09:26:32;20.48;;;14.02;;
35372;SDS011;21476;51.652;7.852;2022-12-10T09:28:57;21.08;;;13.80;;
35372;SDS011;21476;51.652;7.852;2022-12-10T09:31:24;22.00;;;14.43;;
35372;SDS011;21476;51.652;7.852;2022-12-10T09:33:50;23.80;;;15.07;;
35372;SDS011;21476;51.652;7.852;2022-12-10T09:36:17;23.02;;;15.20;;
35372;SDS011;21476;51.652;7.852;2022-12-10T09:38:44;23.67;;;15.50;;
35372;SDS011;21476;51.652;7.852;2022-12-10T09:43:46;23.98;;;15.10;;
35372;SDS011;21476;51.652;7.852;2022-12-10T09:52:04;31.13;;;14.07;;
35372;SDS011;21476;51.652;7.852;2022-12-10T09:54:40;24.52;;;14.35;;
35372;SDS011;21476;51.652;7.852;2022-12-10T09:57:19;21.52;;;14.18;;
35372;SDS011;21476;51.652;7.852;2022-12-10T09:59:46;24.35;;;15.63;;
35372;SDS011;21476;51.652;7.852;2022-12-10T10:04:40;21.83;;;14.48;;
35372;SDS011;21476;51.652;7.852;2022-12-10T10:07:06;23.55;;;15.80;;
35372;SDS011;21476;51.652;7.852;2022-12-10T10:09:40;23.88;;;13.05;;
35372;SDS011;21476;51.652;7.852;2022-12-10T10:12:11;18.25;;;12.40;;
35372;SDS011;21476;51.652;7.852;2022-12-10T10:17:08;20.58;;;13.13;;
35372;SDS011;21476;51.652;7.852;2022-12-10T10:19:43;21.15;;;13.05;;
35372;SDS011;21476;51.652;7.852;2022-12-10T10:22:10;24.30;;;14.90;;
35372;SDS011;21476;51.652;7.852;2022-12-10T10:24:37;21.27;;;14.77;;
35372;SDS011;21476;51.652;7.852;2022-12-10T10:27:12;24.63;;;14.10;;
35372;SDS011;21476;51.652;7.852;2022-12-10T10:29:42;23.63;;;15.73;;
35372;SDS011;21476;51.652;7.852;2022-12-10T10:32:13;24.50;;;15.15;;
35372;SDS011;21476;51.652;7.852;2022-12-10T10:34:52;21.15;;;14.07;;
35372;SDS011;21476;51.652;7.852;2022-12-10T10:37:20;20.92;;;14.50;;
35372;SDS011;21476;51.652;7.852;2022-12-10T10:39:49;22.55;;;15.32;;
35372;SDS011;21476;51.652;7.852;2022-12-10T10:42:26;24.08;;;15.10;;
35372;SDS011;21476;51.652;7.852;2022-12-10T10:45:04;23.90;;;14.68;;
35372;SDS011;21476;51.652;7.852;2022-12-10T10:47:49;21.10;;;14.43;;
35372;SDS011;21476;51.652;7.852;2022-12-10T10:56:11;25.80;;;15.55;;
35372;SDS011;21476;51.652;7.852;2022-12-10T10:58:56;23.40;;;14.98;;
35372;SDS011;21476;51.652;7.852;2022-12-10T11:01:24;24.23;;;14.52;;
35372;SDS011;21476;51.652;7.852;2022-12-10T11:03:55;23.70;;;14.50;;
35372;SDS011;21476;51.652;7.852;2022-12-10T11:06:23;23.98;;;14.50;;
35372;SDS011;21476;51.652;7.852;2022-12-10T11:08:50;27.10;;;15.75;;
35372;SDS011;21476;51.652;7.852;2022-12-10T11:11:41;28.98;;;15.65;;
35372;SDS011;21476;51.652;7.852;2022-12-10T11:14:21;25.50;;;14.85;;
35372;SDS011;21476;51.652;7.852;2022-12-10T11:19:36;22.88;;;15.15;;
35372;SDS011;21476;51.652;7.852;2022-12-10T11:22:19;20.52;;;13.15;;
35372;SDS011;21476;51.652;7.852;2022-12-10T11:24:47;24.85;;;14.63;;
35372;SDS011;21476;51.652;7.852;2022-12-10T11:30:09;22.17;;;14.88;;
35372;SDS011;21476;51.652;7.852;2022-12-10T11:35:52;24.20;;;15.15;;
35372;SDS011;21476;51.652;7.852;2022-12-10T11:41:32;23.02;;;14.52;;
35372;SDS011;21476;51.652;7.852;2022-12-10T11:44:21;23.27;;;14.50;;
35372;SDS011;21476;51.652;7.852;2022-12-10T11:50:12;28.38;;;17.58;;
35372;SDS011;21476;51.652;7.852;2022-12-10T11:53:14;25.65;;;15.50;;
35372;SDS011;21476;51.652;7.852;2022-12-10T11:56:07;24.65;;;15.85;;
35372;SDS011;21476;51.652;7.852;2022-12-10T12:01:29;26.83;;;16.55;;
35372;SDS011;21476;51.652;7.852;2022-12-10T12:09:29;24.08;;;15.35;;
35372;SDS011;21476;51.652;7.852;2022-12-10T12:14:34;27.13;;;17.02;;
35372;SDS011;21476;51.652;7.852;2022-12-10T12:17:17;22.55;;;15.02;;
35372;SDS011;21476;51.652;7.852;2022-12-10T12:22:34;36.25;;;16.23;;
35372;SDS011;21476;51.652;7.852;2022-12-10T12:28:00;27.13;;;15.98;;
35372;SDS011;21476;51.652;7.852;2022-12-10T12:30:36;26.20;;;16.02;;
35372;SDS011;21476;51.652;7.852;2022-12-10T12:33:05;25.83;;;16.35;;
35372;SDS011;21476;51.652;7.852;2022-12-10T12:35:58;24.73;;;16.20;;
35372;SDS011;21476;51.652;7.852;2022-12-10T12:47:26;27.45;;;17.92;;
35372;SDS011;21476;51.652;7.852;2022-12-10T12:53:03;28.38;;;17.80;;
35372;SDS011;21476;51.652;7.852;2022-12-10T12:58:15;28.33;;;17.00;;
35372;SDS011;21476;51.652;7.852;2022-12-10T13:00:50;33.53;;;19.38;;
35372;SDS011;21476;51.652;7.852;2022-12-10T13:05:44;26.05;;;17.13;;
35372;SDS011;21476;51.652;7.852;2022-12-10T13:10:59;31.02;;;17.98;;
35372;SDS011;21476;51.652;7.852;2022-12-10T13:13:41;30.35;;;17.50;;
35372;SDS011;21476;51.652;7.852;2022-12-10T13:24:45;29.90;;;17.48;;
35372;SDS011;21476;51.652;7.852;2022-12-10T13:27:31;30.60;;;19.00;;
35372;SDS011;21476;51.652;7.852;2022-12-10T13:43:37;36.97;;;20.80;;
35372;SDS011;21476;51.652;7.852;2022-12-10T13:46:24;30.98;;;19.80;;
35372;SDS011;21476;51.652;7.852;2022-12-10T13:48:58;32.42;;;19.83;;
35372;SDS011;21476;51.652;7.852;2022-12-10T13:59:45;37.45;;;24.15;;
35372;SDS011;21476;51.652;7.852;2022-12-10T14:02:28;33.75;;;20.15;;
35372;SDS011;21476;51.652;7.852;2022-12-10T14:08:01;34.40;;;21.10;;
35372;SDS011;21476;51.652;7.852;2022-12-10T14:10:33;33.45;;;20.30;;
35372;SDS011;21476;51.652;7.852;2022-12-10T14:13:01;31.10;;;20.48;;
35372;SDS011;21476;51.652;7.852;2022-12-10T14:15:28;35.15;;;21.48;;
35372;SDS011;21476;51.652;7.852;2022-12-10T14:18:02;35.40;;;21.95;;
35372;SDS011;21476;51.652;7.852;2022-12-10T14:20:49;35.60;;;22.07;;
35372;SDS011;21476;51.652;7.852;2022-12-10T14:23:28;33.97;;;21.02;;
35372;SDS011;21476;51.652;7.852;2022-12-10T14:25:59;39.85;;;23.67;;
35372;SDS011;21476;51.652;7.852;2022-12-10T14:28:29;34.85;;;22.90;;
35372;SDS011;21476;51.652;7.852;2022-12-10T14:30:55;41.53;;;24.35;;
35372;SDS011;21476;51.652;7.852;2022-12-10T14:33:21;38.13;;;24.48;;
35372;SDS011;21476;51.652;7.852;2022-12-10T14:35:49;37.22;;;23.70;;
35372;SDS011;21476;51.652;7.852;2022-12-10T14:38:17;38.45;;;22.73;;
35372;SDS011;21476;51.652;7.852;2022-12-10T14:40:57;42.67;;;24.63;;
35372;SDS011;21476;51.652;7.852;2022-12-10T14:43:25;40.80;;;25.15;;
35372;SDS011;21476;51.652;7.852;2022-12-10T14:46:01;37.50;;;22.00;;
35372;SDS011;21476;51.652;7.852;2022-12-10T14:48:28;34.58;;;21.60;;
35372;SDS011;21476;51.652;7.852;2022-12-10T14:50:56;37.90;;;22.75;;
35372;SDS011;21476;51.652;7.852;2022-12-10T14:53:28;37.88;;;22.67;;
35372;SDS011;21476;51.652;7.852;2022-12-10T14:55:58;38.85;;;24.30;;
35372;SDS011;21476;51.652;7.852;2022-12-10T14:58:38;34.35;;;21.33;;
35372;SDS011;21476;51.652;7.852;2022-12-10T15:01:05;34.88;;;21.88;;
35372;SDS011;21476;51.652;7.852;2022-12-10T15:03:32;38.58;;;21.52;;
35372;SDS011;21476;51.652;7.852;2022-12-10T15:06:09;34.20;;;22.25;;
35372;SDS011;21476;51.652;7.852;2022-12-10T15:08:35;41.03;;;24.95;;
35372;SDS011;21476;51.652;7.852;2022-12-10T15:11:01;41.20;;;24.23;;
35372;SDS011;21476;51.652;7.852;2022-12-10T15:15:57;38.03;;;23.85;;
35372;SDS011;21476;51.652;7.852;2022-12-10T15:18:37;40.47;;;22.98;;
35372;SDS011;21476;51.652;7.852;2022-12-10T15:21:04;38.13;;;22.92;;
35372;SDS011;21476;51.652;7.852;2022-12-10T15:23:41;40.50;;;23.10;;
35372;SDS011;21476;51.652;7.852;2022-12-10T15:26:15;38.08;;;22.25;;
35372;SDS011;21476;51.652;7.852;2022-12-10T15:32:05;36.13;;;22.02;;
35372;SDS011;21476;51.652;7.852;2022-12-10T15:34:43;36.75;;;23.35;;
35372;SDS011;21476;51.652;7.852;2022-12-10T15:37:38;41.20;;;23.83;;
35372;SDS011;21476;51.652;7.852;2022-12-10T15:40:03;40.85;;;23.70;;
35372;SDS011;21476;51.652;7.852;2022-12-10T15:42:36;37.92;;;23.20;;
35372;SDS011;21476;51.652;7.852;2022-12-10T15:45:12;41.67;;;25.52;;
35372;SDS011;21476;51.652;7.852;2022-12-10T15:47:44;42.83;;;24.50;;
35372;SDS011;21476;51.652;7.852;2022-12-10T15:50:10;39.67;;;24.88;;
35372;SDS011;21476;51.652;7.852;2022-12-10T15:52:35;41.13;;;24.77;;
35372;SDS011;21476;51.652;7.852;2022-12-10T15:55:02;56.28;;;29.30;;
35372;SDS011;21476;51.652;7.852;2022-12-10T15:57:29;44.58;;;26.75;;
35372;SDS011;21476;51.652;7.852;2022-12-10T16:00:00;42.53;;;25.73;;
35372;SDS011;21476;51.652;7.852;2022-12-10T16:07:54;37.50;;;23.13;;
35372;SDS011;21476;51.652;7.852;2022-12-10T16:10:23;38.85;;;23.42;;
35372;SDS011;21476;51.652;7.852;2022-12-10T16:13:34;36.03;;;22.25;;
35372;SDS011;21476;51.652;7.852;2022-12-10T16:15:45;40.10;;;22.88;;
35372;SDS011;21476;51.652;7.852;2022-12-10T16:18:14;41.58;;;22.00;;
35372;SDS011;21476;51.652;7.852;2022-12-10T16:20:40;39.40;;;22.63;;
35372;SDS011;21476;51.652;7.852;2022-12-10T16:23:06;44.75;;;23.58;;
35372;SDS011;21476;51.652;7.852;2022-12-10T16:25:32;44.33;;;25.00;;
35372;SDS011;21476;51.652;7.852;2022-12-10T16:27:59;45.38;;;25.08;;
35372;SDS011;21476;51.652;7.852;2022-12-10T16:30:36;40.75;;;25.08;;
35372;SDS011;21476;51.652;7.852;2022-12-10T16:33:05;44.53;;;25.27;;
35372;SDS011;21476;51.652;7.852;2022-12-10T16:35:31;43.00;;;24.45;;
35372;SDS011;21476;51.652;7.852;2022-12-10T16:37:57;39.95;;;23.98;;
35372;SDS011;21476;51.652;7.852;2022-12-10T16:40:24;41.40;;;25.25;;
35372;SDS011;21476;51.652;7.852;2022-12-10T16:42:52;47.28;;;26.27;;
35372;SDS011;21476;51.652;7.852;2022-12-10T16:47:50;47.22;;;26.88;;
35372;SDS011;21476;51.652;7.852;2022-12-10T16:50:16;45.38;;;27.25;;